createdAt,value
2017-11-08T00:00:43.831Z,16.02
2017-11-08T00:03:12.311Z,16.70
2017-11-08T00:05:40.335Z,16.12
2017-11-08T00:08:08.378Z,15.65
2017-11-08T00:10:37.179Z,15.38
2017-11-08T00:13:05.219Z,15.02
2017-11-08T00:15:34.003Z,15.27
2017-11-08T00:18:03.845Z,17.45
2017-11-08T00:20:31.871Z,15.73
2017-11-08T00:22:59.907Z,16.75
2017-11-08T00:25:28.723Z,16.12
2017-11-08T00:27:56.795Z,16.23
2017-11-08T00:30:26.343Z,17.17
2017-11-08T00:32:54.373Z,16.25
2017-11-08T00:35:23.188Z,15.77
2017-11-08T00:37:51.235Z,17.20
2017-11-08T00:40:19.268Z,16.12
2017-11-08T00:42:48.063Z,16.73
2017-11-08T00:45:16.131Z,15.38
2017-11-08T00:47:44.165Z,15.15
2017-11-08T00:50:12.207Z,15.77
2017-11-08T00:52:40.227Z,16.33
2017-11-08T00:55:08.264Z,17.25
2017-11-08T00:57:37.147Z,17.58
2017-11-08T01:00:07.981Z,15.30
2017-11-08T01:02:36.002Z,15.60
2017-11-08T01:05:04.042Z,16.50
2017-11-08T01:07:32.064Z,16.77
2017-11-08T01:10:00.879Z,15.32
2017-11-08T01:12:28.902Z,18.15
2017-11-08T01:14:57.715Z,17.10
2017-11-08T01:17:25.738Z,14.60
2017-11-08T01:19:53.791Z,15.07
2017-11-08T01:22:22.581Z,17.58
2017-11-08T01:24:50.623Z,15.85
2017-11-08T01:27:19.423Z,16.87
2017-11-08T01:29:47.471Z,16.70
2017-11-08T01:32:15.498Z,15.70
2017-11-08T01:34:44.307Z,16.52
2017-11-08T01:37:18.104Z,15.10
2017-11-08T01:39:47.051Z,16.12
2017-11-08T01:42:16.639Z,16.58
2017-11-08T01:44:48.647Z,16.15
2017-11-08T01:47:16.683Z,15.23
2017-11-08T01:49:47.230Z,16.30
2017-11-08T01:52:17.202Z,17.42
2017-11-08T01:54:45.223Z,16.58
2017-11-08T01:57:13.280Z,18.45
2017-11-08T01:59:41.307Z,16.55
2017-11-08T02:02:10.115Z,15.73
2017-11-08T02:04:38.977Z,16.83
2017-11-08T02:07:07.779Z,17.23
2017-11-08T02:09:35.808Z,16.70
2017-11-08T02:12:03.852Z,15.90
2017-11-08T02:14:32.639Z,16.55
2017-11-08T02:17:00.678Z,15.90
2017-11-08T02:19:29.471Z,17.30
2017-11-08T02:21:57.527Z,17.73
2017-11-08T02:24:27.499Z,17.77
2017-11-08T02:27:02.134Z,19.42
2017-11-08T02:29:30.157Z,18.52
2017-11-08T02:31:58.183Z,15.27
2017-11-08T02:34:26.219Z,16.55
2017-11-08T02:36:54.239Z,18.37
2017-11-08T02:39:23.075Z,18.08
2017-11-08T02:41:51.104Z,16.65
2017-11-08T02:44:19.142Z,19.00
2017-11-08T02:47:01.897Z,17.80
2017-11-08T02:49:32.806Z,19.87
2017-11-08T02:52:00.838Z,18.10
2017-11-08T02:54:29.003Z,18.62
2017-11-08T02:56:57.035Z,16.55
2017-11-08T02:59:25.063Z,18.23
2017-11-08T03:01:53.107Z,18.20
2017-11-08T03:04:21.938Z,18.10
2017-11-08T03:06:49.999Z,18.73
2017-11-08T03:09:18.015Z,19.20
2017-11-08T03:11:46.845Z,17.55
2017-11-08T03:14:14.867Z,17.90
2017-11-08T03:16:42.947Z,17.20
2017-11-08T03:19:10.975Z,17.45
2017-11-08T03:21:38.991Z,18.33
2017-11-08T03:24:07.040Z,16.58
2017-11-08T03:26:35.059Z,15.80
2017-11-08T03:29:03.108Z,17.50
2017-11-08T03:31:31.134Z,18.42
2017-11-08T03:33:59.939Z,18.77
2017-11-08T03:36:27.975Z,17.37
2017-11-08T03:38:56.014Z,17.77
2017-11-08T03:41:24.836Z,17.48
2017-11-08T03:43:52.879Z,15.98
2017-11-08T03:46:20.904Z,17.30
2017-11-08T03:48:49.708Z,17.15
2017-11-08T03:51:17.739Z,16.58
2017-11-08T03:53:46.543Z,17.60
2017-11-08T03:56:14.575Z,16.27
2017-11-08T03:58:42.623Z,17.42
2017-11-08T04:01:11.408Z,16.80
2017-11-08T04:03:39.451Z,17.02
2017-11-08T04:06:07.516Z,17.42
2017-11-08T04:08:35.583Z,17.83
2017-11-08T04:11:03.611Z,16.80
2017-11-08T04:13:32.411Z,16.20
2017-11-08T04:16:00.462Z,18.27
2017-11-08T04:18:28.503Z,15.90
2017-11-08T04:20:57.313Z,16.10
2017-11-08T04:23:25.339Z,18.48
2017-11-08T04:25:53.388Z,15.85
2017-11-08T04:28:21.444Z,16.52
2017-11-08T04:30:50.263Z,16.25
2017-11-08T04:33:18.293Z,15.30
2017-11-08T04:35:46.342Z,15.80
2017-11-08T04:38:15.124Z,16.77
2017-11-08T04:40:43.198Z,17.58
2017-11-08T04:43:11.220Z,19.95
2017-11-08T04:45:39.250Z,17.23
2017-11-08T04:48:07.305Z,17.45
2017-11-08T04:50:36.095Z,15.15
2017-11-08T04:53:04.905Z,18.10
2017-11-08T04:55:32.939Z,15.95
2017-11-08T04:58:00.991Z,16.48
2017-11-08T05:00:29.012Z,17.50
2017-11-08T05:02:57.243Z,18.00
2017-11-08T05:05:25.259Z,17.02
2017-11-08T05:07:53.312Z,18.05
2017-11-08T05:10:21.339Z,14.00
2017-11-08T05:12:50.890Z,18.23
2017-11-08T05:15:18.903Z,17.02
2017-11-08T05:17:47.740Z,14.60
2017-11-08T05:20:15.762Z,16.42
2017-11-08T05:22:43.866Z,16.25
2017-11-08T05:25:11.949Z,19.02
2017-11-08T05:27:40.736Z,15.65
2017-11-08T05:30:08.775Z,16.50
2017-11-08T05:32:37.572Z,16.73
2017-11-08T05:35:05.623Z,16.52
2017-11-08T05:37:33.660Z,16.60
2017-11-08T05:40:02.467Z,16.12
2017-11-08T05:42:30.500Z,17.42
2017-11-08T05:44:59.311Z,18.40
2017-11-08T05:47:27.335Z,17.10
2017-11-08T05:49:55.406Z,15.60
2017-11-08T05:52:23.435Z,17.92
2017-11-08T05:54:52.223Z,16.05
2017-11-08T05:57:20.271Z,18.00
2017-11-08T05:59:48.295Z,16.50
2017-11-08T06:02:16.353Z,16.00
2017-11-08T06:04:44.377Z,18.12
2017-11-08T06:07:12.856Z,16.33
2017-11-08T06:09:40.870Z,18.90
2017-11-08T06:12:08.923Z,17.12
2017-11-08T06:14:36.948Z,17.30
2017-11-08T06:17:05.753Z,17.15
2017-11-08T06:19:33.814Z,19.58
2017-11-08T06:22:01.879Z,18.40
2017-11-08T06:24:29.915Z,19.23
2017-11-08T06:26:57.967Z,15.05
2017-11-08T06:29:26.760Z,18.67
2017-11-08T06:31:54.818Z,17.05
2017-11-08T06:34:22.872Z,16.05
2017-11-08T06:36:50.919Z,18.67
2017-11-08T06:39:19.707Z,17.50
2017-11-08T06:41:47.805Z,18.83
2017-11-08T06:44:15.823Z,17.52
2017-11-08T06:46:43.871Z,17.77
2017-11-08T06:49:11.911Z,18.80
2017-11-08T06:51:39.951Z,16.77
2017-11-08T06:54:08.740Z,17.73
2017-11-08T06:56:36.927Z,18.50
2017-11-08T06:59:04.956Z,16.83
2017-11-08T07:01:32.991Z,17.87
2017-11-08T07:04:01.791Z,19.45
2017-11-08T07:06:29.823Z,18.40
2017-11-08T07:08:58.637Z,19.87
2017-11-08T07:11:26.663Z,17.17
2017-11-08T07:13:54.699Z,17.87
2017-11-08T07:16:23.500Z,18.08
2017-11-08T07:18:51.555Z,19.17
2017-11-08T07:21:19.583Z,18.70
2017-11-08T07:23:48.404Z,18.95
2017-11-08T07:26:16.424Z,17.73
2017-11-08T07:28:45.230Z,16.52
2017-11-08T07:31:13.262Z,18.73
2017-11-08T07:33:41.312Z,19.50
2017-11-08T07:36:10.099Z,18.83
2017-11-08T07:38:38.143Z,19.17
2017-11-08T07:41:06.932Z,17.10
2017-11-08T07:43:34.971Z,16.62
2017-11-08T07:46:03.764Z,20.45
2017-11-08T07:48:31.807Z,18.33
2017-11-08T07:50:59.832Z,18.87
2017-11-08T07:53:27.870Z,19.08
2017-11-08T07:56:01.675Z,19.33
2017-11-08T07:58:29.719Z,17.25
2017-11-08T08:00:57.763Z,19.87
2017-11-08T08:03:25.786Z,18.95
2017-11-08T08:05:53.831Z,18.67
2017-11-08T08:08:21.903Z,18.35
2017-11-08T08:10:49.930Z,19.42
2017-11-08T08:13:18.901Z,18.75
2017-11-08T08:15:47.687Z,18.75
2017-11-08T08:18:16.504Z,18.87
2017-11-08T08:20:44.532Z,16.25
2017-11-08T08:23:12.583Z,19.45
2017-11-08T08:25:43.435Z,18.17
2017-11-08T08:28:11.486Z,17.27
2017-11-08T08:30:39.520Z,18.33
2017-11-08T08:33:07.555Z,18.42
2017-11-08T08:35:36.347Z,17.62
2017-11-08T08:38:04.372Z,15.82
2017-11-08T08:40:33.180Z,17.35
2017-11-08T08:43:01.208Z,18.42
2017-11-08T08:45:30.143Z,17.05
2017-11-08T08:47:58.147Z,17.15
2017-11-08T08:50:26.214Z,16.37
2017-11-08T08:52:54.267Z,17.27
2017-11-08T08:55:23.075Z,17.02
2017-11-08T08:57:51.344Z,16.80
2017-11-08T09:00:21.187Z,17.23
2017-11-08T09:02:49.998Z,16.17
2017-11-08T09:05:18.016Z,15.00
2017-11-08T09:07:47.493Z,15.50
2017-11-08T09:10:15.571Z,16.52
2017-11-08T09:12:44.380Z,16.60
2017-11-08T09:15:12.412Z,16.70
2017-11-08T09:17:40.456Z,17.12
2017-11-08T09:20:08.492Z,16.10
2017-11-08T09:22:42.266Z,15.07
2017-11-08T09:25:11.814Z,15.23
2017-11-08T09:27:39.875Z,15.73
2017-11-08T09:30:08.780Z,16.05
2017-11-08T09:32:36.828Z,14.30
2017-11-08T09:35:09.724Z,16.12
2017-11-08T09:37:37.759Z,15.48
2017-11-08T09:40:05.788Z,14.07
2017-11-08T09:42:35.647Z,14.80
2017-11-08T09:45:04.444Z,16.40
2017-11-08T09:47:32.481Z,14.55
2017-11-08T09:50:01.294Z,14.48
2017-11-08T09:52:29.349Z,14.68
2017-11-08T09:54:57.378Z,14.68
2017-11-08T09:57:26.314Z,15.57
2017-11-08T09:59:54.367Z,15.77
2017-11-08T10:02:23.411Z,15.38
2017-11-08T10:04:51.447Z,13.57
2017-11-08T10:07:19.509Z,13.10
2017-11-08T10:09:52.451Z,12.65
2017-11-08T10:12:20.423Z,14.02
2017-11-08T10:14:48.479Z,12.57
2017-11-08T10:17:17.370Z,11.85
2017-11-08T10:19:45.411Z,14.18
2017-11-08T10:22:13.997Z,12.73
2017-11-08T10:24:43.111Z,14.30
2017-11-08T10:27:11.147Z,13.85
2017-11-08T10:29:39.189Z,12.63
2017-11-08T10:32:07.240Z,13.07
2017-11-08T10:34:35.276Z,14.27
2017-11-08T10:37:04.080Z,13.70
2017-11-08T10:39:32.104Z,12.80
2017-11-08T10:42:00.881Z,13.40
2017-11-08T10:44:28.908Z,11.07
2017-11-08T10:46:56.957Z,10.52
2017-11-08T10:49:30.576Z,11.10
2017-11-08T10:51:58.612Z,12.10
2017-11-08T10:54:26.643Z,10.65
2017-11-08T10:56:55.469Z,10.65
2017-11-08T10:59:27.414Z,10.38
2017-11-08T11:01:55.457Z,10.73
2017-11-08T11:04:23.479Z,11.18
2017-11-08T11:06:52.295Z,9.98
2017-11-08T11:09:23.296Z,9.20
2017-11-08T11:11:51.432Z,10.18
2017-11-08T11:14:20.232Z,11.40
2017-11-08T11:16:48.320Z,10.63
2017-11-08T11:19:21.152Z,9.23
2017-11-08T11:21:49.313Z,9.15
2017-11-08T11:24:17.349Z,9.88
2017-11-08T11:26:48.971Z,8.57
2017-11-08T11:29:17.017Z,8.52
2017-11-08T11:31:45.092Z,9.45
2017-11-08T11:34:13.920Z,9.13
2017-11-08T11:36:41.990Z,8.40
2017-11-08T11:39:13.032Z,8.77
2017-11-08T11:41:48.710Z,11.32
2017-11-08T11:44:18.183Z,9.40
2017-11-08T11:46:48.192Z,10.98
2017-11-08T11:49:19.303Z,8.45
2017-11-08T11:51:50.369Z,7.72
2017-11-08T11:54:18.571Z,8.98
2017-11-08T11:56:47.476Z,7.87
2017-11-08T11:59:17.925Z,9.80
2017-11-08T12:01:47.706Z,8.50
2017-11-08T12:04:18.907Z,9.10
2017-11-08T12:06:48.208Z,8.82
2017-11-08T12:09:16.452Z,9.10
2017-11-08T12:11:44.573Z,8.55
2017-11-08T12:14:12.641Z,9.65
2017-11-08T12:16:40.724Z,8.73
2017-11-08T12:19:08.764Z,8.52
2017-11-08T12:21:36.815Z,6.87
2017-11-08T12:24:04.841Z,6.85
2017-11-08T12:26:32.908Z,6.90
2017-11-08T12:29:00.956Z,7.50
2017-11-08T12:31:29.011Z,6.70
2017-11-08T12:33:57.037Z,7.45
2017-11-08T12:36:25.844Z,9.05
2017-11-08T12:38:53.882Z,7.70
2017-11-08T12:41:22.276Z,6.78
2017-11-08T12:43:55.956Z,6.00
2017-11-08T12:46:24.063Z,6.82
2017-11-08T12:48:52.174Z,6.85
2017-11-08T12:51:20.212Z,6.43
2017-11-08T12:53:48.272Z,6.95
2017-11-08T12:56:16.312Z,6.15
2017-11-08T12:58:44.360Z,7.25
2017-11-08T13:01:12.420Z,6.65
2017-11-08T13:03:40.471Z,6.20
2017-11-08T13:06:14.312Z,6.65
2017-11-08T13:08:42.342Z,6.40
2017-11-08T13:11:16.125Z,7.25
2017-11-08T13:13:44.208Z,7.25
2017-11-08T13:16:12.326Z,6.85
2017-11-08T13:18:41.164Z,8.63
2017-11-08T13:21:09.198Z,9.18
2017-11-08T13:23:38.067Z,7.97
2017-11-08T13:26:06.524Z,8.88
2017-11-08T13:28:34.563Z,8.98
2017-11-08T13:31:02.597Z,7.72
2017-11-08T13:33:38.971Z,9.30
2017-11-08T13:36:07.217Z,8.98
2017-11-08T13:38:36.615Z,8.25
2017-11-08T13:41:19.266Z,7.65
2017-11-08T13:43:56.847Z,7.90
2017-11-08T13:46:28.511Z,7.82
2017-11-08T13:48:57.328Z,7.40
2017-11-08T13:51:25.944Z,6.20
2017-11-08T13:53:53.984Z,6.40
2017-11-08T13:56:22.026Z,7.05
2017-11-08T13:58:50.065Z,6.70
2017-11-08T14:01:18.090Z,7.25
2017-11-08T14:47:27.360Z,7.05
2017-11-08T14:49:55.840Z,7.62
2017-11-08T14:52:23.867Z,6.55
2017-11-08T14:54:51.896Z,6.80
2017-11-08T14:57:20.696Z,7.35
2017-11-08T14:59:48.735Z,7.45
2017-11-08T15:02:16.787Z,6.55
2017-11-08T15:04:45.577Z,6.55
2017-11-08T15:07:13.660Z,7.07
2017-11-08T15:09:41.675Z,6.45
2017-11-08T15:12:10.941Z,7.05
2017-11-08T15:14:41.843Z,6.87
2017-11-08T15:17:09.890Z,6.80
2017-11-08T15:19:43.547Z,7.20
2017-11-08T15:22:11.696Z,6.40
2017-11-08T15:24:40.481Z,8.23
2017-11-08T15:27:08.495Z,6.85
2017-11-08T15:29:36.529Z,6.70
2017-11-08T15:32:04.540Z,6.80
2017-11-08T15:34:34.363Z,6.75
2017-11-08T15:37:02.490Z,5.87
2017-11-08T15:39:32.035Z,6.22
2017-11-08T15:42:00.048Z,6.80
2017-11-08T15:44:28.080Z,7.97
2017-11-08T15:46:56.881Z,7.35
2017-11-08T15:49:24.929Z,7.15
2017-11-08T15:51:52.932Z,6.57
2017-11-08T15:54:20.976Z,6.93
2017-11-08T15:56:48.996Z,5.90
2017-11-08T15:59:17.028Z,7.60
2017-11-08T16:01:45.821Z,7.55
2017-11-08T16:04:13.852Z,6.70
2017-11-08T16:06:42.649Z,7.57
2017-11-08T16:09:10.665Z,6.55
2017-11-08T16:11:38.697Z,6.05
2017-11-08T16:14:06.832Z,6.60
2017-11-08T16:16:34.866Z,7.22
2017-11-08T16:19:02.887Z,6.45
2017-11-08T16:21:30.927Z,6.25
2017-11-08T16:23:58.956Z,5.70
2017-11-08T16:26:26.984Z,6.45
2017-11-08T16:28:55.030Z,5.53
2017-11-08T16:31:23.061Z,5.03
2017-11-08T16:33:51.094Z,6.45
2017-11-08T16:36:19.193Z,6.30
2017-11-08T16:38:47.992Z,6.03
2017-11-08T16:41:16.017Z,6.12
2017-11-08T16:43:44.836Z,6.55
2017-11-08T16:46:12.867Z,5.62
2017-11-08T16:48:40.921Z,7.03
2017-11-08T16:51:09.032Z,5.80
2017-11-08T16:53:37.068Z,6.07
2017-11-08T16:56:05.088Z,5.95
2017-11-08T16:58:33.892Z,6.75
2017-11-08T17:01:01.904Z,6.80
2017-11-08T17:03:30.699Z,7.50
2017-11-08T17:05:58.715Z,6.07
2017-11-08T17:08:26.791Z,5.60
2017-11-08T17:10:55.576Z,5.93
2017-11-08T17:13:24.356Z,6.85
2017-11-08T17:15:52.400Z,7.00
2017-11-08T17:18:21.180Z,7.35
2017-11-08T17:20:49.215Z,6.10
2017-11-08T17:23:18.012Z,6.20
2017-11-08T17:25:46.055Z,7.32
2017-11-08T17:28:18.227Z,7.30
2017-11-08T17:30:47.830Z,7.70
2017-11-08T17:33:15.868Z,7.70
2017-11-08T17:35:43.919Z,7.65
2017-11-08T17:38:12.719Z,7.12
2017-11-08T17:40:40.753Z,8.73
2017-11-08T17:43:08.780Z,9.52
2017-11-08T17:45:36.816Z,8.95
2017-11-08T17:48:04.840Z,9.20
2017-11-08T17:50:35.324Z,8.68
2017-11-08T17:53:03.880Z,8.25
2017-11-08T17:55:32.692Z,10.05
2017-11-08T17:58:00.748Z,8.40
2017-11-08T18:00:28.816Z,9.07
2017-11-08T18:03:00.134Z,8.30
2017-11-08T18:05:28.159Z,8.50
2017-11-08T18:07:56.955Z,9.88
2017-11-08T18:10:25.021Z,8.95
2017-11-08T18:12:53.043Z,8.90
2017-11-08T18:15:21.901Z,8.75
2017-11-08T18:17:49.989Z,9.73
2017-11-08T18:20:19.488Z,9.52
2017-11-08T18:22:47.524Z,9.95
2017-11-08T18:25:15.588Z,10.20
2017-11-08T18:27:43.607Z,9.68
2017-11-08T18:30:11.840Z,9.25
2017-11-08T18:32:39.884Z,10.43
2017-11-08T18:35:07.949Z,9.75
2017-11-08T18:37:35.971Z,9.40
2017-11-08T18:40:04.001Z,9.23
2017-11-08T18:42:32.036Z,10.02
2017-11-08T18:45:00.059Z,9.52
2017-11-08T18:47:28.091Z,8.27
2017-11-08T18:49:56.132Z,9.25
2017-11-08T18:52:24.939Z,9.52
2017-11-08T18:54:52.976Z,8.95
2017-11-08T18:57:21.780Z,9.25
2017-11-08T18:59:49.805Z,8.70
2017-11-08T19:02:17.852Z,9.60
2017-11-08T19:04:46.635Z,8.25
2017-11-08T19:07:14.674Z,7.80
2017-11-08T19:09:43.475Z,10.48
2017-11-08T19:12:11.516Z,9.23
2017-11-08T19:14:40.328Z,9.38
2017-11-08T19:17:08.382Z,9.60
2017-11-08T19:19:36.396Z,8.35
2017-11-08T19:22:05.338Z,9.27
2017-11-08T19:24:33.367Z,9.32
2017-11-08T19:27:01.387Z,9.20
2017-11-08T19:29:29.427Z,8.82
2017-11-08T19:31:58.218Z,9.27
2017-11-08T19:34:27.021Z,8.75
2017-11-08T19:36:55.037Z,9.52
2017-11-08T19:39:23.880Z,9.27
2017-11-08T19:41:51.892Z,9.73
2017-11-08T19:44:19.952Z,10.27
2017-11-08T19:46:47.980Z,9.60
2017-11-08T19:49:16.824Z,9.98
2017-11-08T19:51:44.861Z,9.95
2017-11-08T19:54:12.915Z,9.82
2017-11-08T19:56:41.693Z,9.93
2017-11-08T19:59:09.739Z,9.85
2017-11-08T20:01:37.756Z,9.68
2017-11-08T20:04:05.806Z,10.18
2017-11-08T20:06:34.629Z,11.18
2017-11-08T20:09:02.652Z,10.57
2017-11-08T20:11:30.701Z,10.65
2017-11-08T20:13:59.612Z,9.80
2017-11-08T20:16:27.679Z,11.07
2017-11-08T20:18:55.712Z,11.05
2017-11-08T20:21:23.761Z,11.60
2017-11-08T20:23:51.787Z,11.02
2017-11-08T20:26:20.719Z,11.65
2017-11-08T20:28:48.757Z,9.48
2017-11-08T20:31:16.796Z,10.63
2017-11-08T20:33:44.847Z,11.30
2017-11-08T20:36:12.925Z,11.20
2017-11-08T20:38:40.944Z,12.55
2017-11-08T20:41:09.775Z,11.48
2017-11-08T20:43:37.809Z,12.15
2017-11-08T20:46:05.846Z,10.93
2017-11-08T20:48:33.903Z,12.10
2017-11-08T20:51:01.952Z,12.93
2017-11-08T20:53:29.991Z,12.52
2017-11-08T20:55:58.779Z,11.60
2017-11-08T20:58:26.842Z,12.80
2017-11-08T21:00:54.868Z,12.05
2017-11-08T21:03:23.685Z,11.38
2017-11-08T21:05:51.710Z,11.88
2017-11-08T21:08:20.524Z,12.00
2017-11-08T21:10:48.552Z,13.88
2017-11-08T21:13:16.598Z,12.93
2017-11-08T21:15:44.629Z,12.35
2017-11-08T21:18:12.712Z,12.45
2017-11-08T21:20:40.741Z,12.07
2017-11-08T21:23:08.773Z,12.37
2017-11-08T21:25:36.812Z,11.27
2017-11-08T21:28:04.877Z,12.60
2017-11-08T21:30:32.896Z,13.20
2017-11-08T21:33:00.925Z,12.25
2017-11-08T21:35:29.737Z,11.77
2017-11-08T21:37:57.758Z,12.35
2017-11-08T21:40:26.560Z,11.70
2017-11-08T21:42:55.962Z,11.85
2017-11-08T21:45:24.005Z,11.95
2017-11-08T21:47:52.134Z,11.88
2017-11-08T21:50:20.224Z,11.55
2017-11-08T21:52:49.336Z,12.32
2017-11-08T21:55:18.229Z,12.95
2017-11-08T21:57:47.066Z,12.63
2017-11-08T22:00:15.157Z,13.18
2017-11-08T22:02:43.618Z,11.68
2017-11-08T22:05:11.793Z,13.27
2017-11-08T22:07:39.812Z,11.48
2017-11-08T22:10:07.924Z,12.60
2017-11-08T22:12:36.732Z,11.15
2017-11-08T22:15:05.682Z,12.73
2017-11-08T22:17:35.768Z,12.88
2017-11-08T22:20:04.552Z,11.60
2017-11-08T22:22:33.861Z,12.20
2017-11-08T22:25:02.363Z,12.50
2017-11-08T22:27:31.448Z,11.57
2017-11-08T22:30:00.816Z,13.18
2017-11-08T22:32:41.340Z,13.43
2017-11-08T22:35:12.770Z,12.02
2017-11-08T22:37:42.656Z,15.30
2017-11-08T22:40:11.747Z,14.13
2017-11-08T22:42:39.853Z,13.35
2017-11-08T22:45:09.023Z,13.18
2017-11-08T22:47:38.511Z,14.52
2017-11-08T22:50:08.315Z,13.05
2017-11-08T22:52:37.388Z,12.45
2017-11-08T22:55:17.084Z,13.20
2017-11-08T22:57:50.376Z,12.88
2017-11-08T23:00:22.280Z,13.00
2017-11-08T23:02:50.364Z,12.73
2017-11-08T23:05:18.404Z,12.63
2017-11-08T23:07:47.191Z,13.82
2017-11-08T23:10:15.273Z,13.70
2017-11-08T23:12:43.300Z,12.95
2017-11-08T23:15:11.343Z,12.80
2017-11-08T23:17:39.389Z,14.48
2017-11-08T23:20:08.181Z,14.60
2017-11-08T23:22:36.224Z,14.10
2017-11-08T23:25:05.004Z,12.13
2017-11-08T23:27:33.204Z,13.40
2017-11-08T23:30:01.250Z,13.62
2017-11-08T23:32:29.263Z,13.85
2017-11-08T23:34:58.072Z,14.35
2017-11-08T23:37:26.096Z,14.10
2017-11-08T23:39:54.149Z,12.13
2017-11-08T23:42:24.618Z,14.30
2017-11-08T23:44:53.332Z,13.35
2017-11-08T23:47:22.130Z,13.07
2017-11-08T23:49:53.842Z,13.25
2017-11-08T23:52:26.844Z,13.10
2017-11-08T23:54:54.948Z,13.40
2017-11-08T23:57:22.975Z,14.13
2017-11-08T23:59:56.881Z,13.00
